sensor_id;sensor_type;location;lat;lon;timestamp;pressure;altitude;pressure_sealevel;temperature
68012;BMP180;54794;48.348;7.878;2022-12-29T00:05:08;98647.00;;;12.50
68012;BMP180;54794;48.348;7.878;2022-12-29T00:07:45;98638.00;;;12.50
68012;BMP180;54794;48.348;7.878;2022-12-29T00:10:38;98647.00;;;12.50
68012;BMP180;54794;48.348;7.878;2022-12-29T00:17:09;98647.00;;;12.50
68012;BMP180;54794;48.348;7.878;2022-12-29T00:20:02;98663.00;;;12.50
68012;BMP180;54794;48.348;7.878;2022-12-29T00:23:24;98657.00;;;12.60
68012;BMP180;54794;48.348;7.878;2022-12-29T00:26:40;98656.00;;;12.60
68012;BMP180;54794;48.348;7.878;2022-12-29T00:29:52;98657.00;;;12.60
68012;BMP180;54794;48.348;7.878;2022-12-29T00:36:23;98654.00;;;12.50
68012;BMP180;54794;48.348;7.878;2022-12-29T00:39:16;98650.00;;;12.60
68012;BMP180;54794;48.348;7.878;2022-12-29T00:42:44;98642.00;;;12.60
68012;BMP180;54794;48.348;7.878;2022-12-29T00:45:58;98627.00;;;12.60
68012;BMP180;54794;48.348;7.878;2022-12-29T00:48:50;98640.00;;;12.80
68012;BMP180;54794;48.348;7.878;2022-12-29T00:54:43;98638.00;;;12.60
68012;BMP180;54794;48.348;7.878;2022-12-29T01:03:39;98652.00;;;12.80
68012;BMP180;54794;48.348;7.878;2022-12-29T01:06:57;98642.00;;;12.70
68012;BMP180;54794;48.348;7.878;2022-12-29T01:09:54;98647.00;;;12.80
68012;BMP180;54794;48.348;7.878;2022-12-29T01:13:10;98637.00;;;12.60
68012;BMP180;54794;48.348;7.878;2022-12-29T01:16:26;98640.00;;;12.70
68012;BMP180;54794;48.348;7.878;2022-12-29T01:19:34;98641.00;;;12.70
68012;BMP180;54794;48.348;7.878;2022-12-29T01:25:22;98643.00;;;12.70
68012;BMP180;54794;48.348;7.878;2022-12-29T01:28:16;98646.00;;;12.60
68012;BMP180;54794;48.348;7.878;2022-12-29T01:31:08;98655.00;;;12.60
68012;BMP180;54794;48.348;7.878;2022-12-29T01:34:08;98656.00;;;12.60
68012;BMP180;54794;48.348;7.878;2022-12-29T01:37:23;98668.00;;;12.50
68012;BMP180;54794;48.348;7.878;2022-12-29T01:40:09;98667.00;;;12.40
68012;BMP180;54794;48.348;7.878;2022-12-29T01:43:49;98666.00;;;12.40
68012;BMP180;54794;48.348;7.878;2022-12-29T01:53:53;98655.00;;;12.40
68012;BMP180;54794;48.348;7.878;2022-12-29T01:56:30;98657.00;;;12.40
68012;BMP180;54794;48.348;7.878;2022-12-29T01:59:38;98658.00;;;12.40
68012;BMP180;54794;48.348;7.878;2022-12-29T02:02:51;98653.00;;;12.30
68012;BMP180;54794;48.348;7.878;2022-12-29T02:09:30;98670.00;;;12.40
68012;BMP180;54794;48.348;7.878;2022-12-29T02:12:27;98658.00;;;12.40
68012;BMP180;54794;48.348;7.878;2022-12-29T02:16:09;98656.00;;;12.40
68012;BMP180;54794;48.348;7.878;2022-12-29T02:51:54;98658.00;;;12.40
68012;BMP180;54794;48.348;7.878;2022-12-29T02:54:19;98647.00;;;12.50
68012;BMP180;54794;48.348;7.878;2022-12-29T02:57:45;98649.00;;;12.40
68012;BMP180;54794;48.348;7.878;2022-12-29T03:01:23;98644.00;;;12.40
68012;BMP180;54794;48.348;7.878;2022-12-29T03:04:34;98652.00;;;12.40
68012;BMP180;54794;48.348;7.878;2022-12-29T03:08:02;98636.00;;;12.30
68012;BMP180;54794;48.348;7.878;2022-12-29T03:11:18;98642.00;;;12.30
68012;BMP180;54794;48.348;7.878;2022-12-29T03:22:06;98622.00;;;12.20
68012;BMP180;54794;48.348;7.878;2022-12-29T03:25:09;98623.00;;;12.20
68012;BMP180;54794;48.348;7.878;2022-12-29T03:28:24;98632.00;;;12.10
68012;BMP180;54794;48.348;7.878;2022-12-29T03:31:28;98631.00;;;12.00
68012;BMP180;54794;48.348;7.878;2022-12-29T03:34:23;98620.00;;;12.10
68012;BMP180;54794;48.348;7.878;2022-12-29T03:37:43;98623.00;;;12.10
68012;BMP180;54794;48.348;7.878;2022-12-29T03:44:08;98637.00;;;12.10
68012;BMP180;54794;48.348;7.878;2022-12-29T03:46:58;98641.00;;;12.10
68012;BMP180;54794;48.348;7.878;2022-12-29T03:50:15;98654.00;;;12.20
68012;BMP180;54794;48.348;7.878;2022-12-29T03:52:57;98669.00;;;12.20
68012;BMP180;54794;48.348;7.878;2022-12-29T03:55:51;98657.00;;;12.20
68012;BMP180;54794;48.348;7.878;2022-12-29T03:58:28;98656.00;;;12.20
68012;BMP180;54794;48.348;7.878;2022-12-29T04:01:24;98648.00;;;12.20
68012;BMP180;54794;48.348;7.878;2022-12-29T04:04:22;98638.00;;;12.30
68012;BMP180;54794;48.348;7.878;2022-12-29T04:07:14;98633.00;;;12.30
68012;BMP180;54794;48.348;7.878;2022-12-29T04:10:30;98623.00;;;12.30
68012;BMP180;54794;48.348;7.878;2022-12-29T04:13:27;98628.00;;;12.30
68012;BMP180;54794;48.348;7.878;2022-12-29T04:16:38;98618.00;;;12.20
68012;BMP180;54794;48.348;7.878;2022-12-29T04:19:25;98612.00;;;12.20
68012;BMP180;54794;48.348;7.878;2022-12-29T04:22:10;98606.00;;;12.20
68012;BMP180;54794;48.348;7.878;2022-12-29T04:26:04;98618.00;;;12.30
68012;BMP180;54794;48.348;7.878;2022-12-29T04:28:57;98629.00;;;12.20
68012;BMP180;54794;48.348;7.878;2022-12-29T04:31:51;98617.00;;;12.20
68012;BMP180;54794;48.348;7.878;2022-12-29T04:34:34;98607.00;;;12.20
68012;BMP180;54794;48.348;7.878;2022-12-29T04:37:28;98616.00;;;12.20
68012;BMP180;54794;48.348;7.878;2022-12-29T04:40:24;98612.00;;;12.20
68012;BMP180;54794;48.348;7.878;2022-12-29T04:43:07;98635.00;;;12.10
68012;BMP180;54794;48.348;7.878;2022-12-29T04:45:57;98623.00;;;12.10
68012;BMP180;54794;48.348;7.878;2022-12-29T04:48:54;98616.00;;;12.20
68012;BMP180;54794;48.348;7.878;2022-12-29T04:51:37;98604.00;;;12.20
68012;BMP180;54794;48.348;7.878;2022-12-29T04:54:28;98615.00;;;12.20
68012;BMP180;54794;48.348;7.878;2022-12-29T04:57:19;98622.00;;;12.30
68012;BMP180;54794;48.348;7.878;2022-12-29T05:00:23;98615.00;;;12.20
68012;BMP180;54794;48.348;7.878;2022-12-29T05:03:12;98612.00;;;12.10
68012;BMP180;54794;48.348;7.878;2022-12-29T05:06:38;98624.00;;;12.20
68012;BMP180;54794;48.348;7.878;2022-12-29T05:09:59;98617.00;;;12.30
68012;BMP180;54794;48.348;7.878;2022-12-29T05:13:07;98605.00;;;12.30
68012;BMP180;54794;48.348;7.878;2022-12-29T05:16:19;98617.00;;;12.20
68012;BMP180;54794;48.348;7.878;2022-12-29T05:19:07;98615.00;;;12.20
68012;BMP180;54794;48.348;7.878;2022-12-29T05:22:11;98593.00;;;12.10
68012;BMP180;54794;48.348;7.878;2022-12-29T05:25:14;98590.00;;;12.10
68012;BMP180;54794;48.348;7.878;2022-12-29T05:28:11;98588.00;;;12.10
68012;BMP180;54794;48.348;7.878;2022-12-29T05:31:04;98579.00;;;12.10
68012;BMP180;54794;48.348;7.878;2022-12-29T05:33:52;98589.00;;;12.10
68012;BMP180;54794;48.348;7.878;2022-12-29T05:40:14;98585.00;;;12.10
68012;BMP180;54794;48.348;7.878;2022-12-29T05:46:21;98587.00;;;12.10
68012;BMP180;54794;48.348;7.878;2022-12-29T05:49:13;98585.00;;;12.10
68012;BMP180;54794;48.348;7.878;2022-12-29T05:52:02;98584.00;;;12.10
68012;BMP180;54794;48.348;7.878;2022-12-29T05:54:42;98588.00;;;12.20
68012;BMP180;54794;48.348;7.878;2022-12-29T05:57:31;98587.00;;;12.20
68012;BMP180;54794;48.348;7.878;2022-12-29T06:00:33;98579.00;;;12.10
68012;BMP180;54794;48.348;7.878;2022-12-29T06:03:46;98578.00;;;12.20
68012;BMP180;54794;48.348;7.878;2022-12-29T06:06:34;98579.00;;;12.10
68012;BMP180;54794;48.348;7.878;2022-12-29T06:09:20;98586.00;;;12.10
68012;BMP180;54794;48.348;7.878;2022-12-29T06:12:27;98587.00;;;12.10
68012;BMP180;54794;48.348;7.878;2022-12-29T06:15:18;98571.00;;;12.10
68012;BMP180;54794;48.348;7.878;2022-12-29T06:18:10;98581.00;;;12.10
68012;BMP180;54794;48.348;7.878;2022-12-29T06:24:41;98575.00;;;12.00
68012;BMP180;54794;48.348;7.878;2022-12-29T06:27:37;98566.00;;;12.00
68012;BMP180;54794;48.348;7.878;2022-12-29T06:30:10;98568.00;;;12.10
68012;BMP180;54794;48.348;7.878;2022-12-29T06:35:58;98570.00;;;12.00
68012;BMP180;54794;48.348;7.878;2022-12-29T06:39:04;98578.00;;;12.00
68012;BMP180;54794;48.348;7.878;2022-12-29T06:42:00;98580.00;;;12.00
68012;BMP180;54794;48.348;7.878;2022-12-29T06:44:54;98582.00;;;12.00
68012;BMP180;54794;48.348;7.878;2022-12-29T06:47:40;98565.00;;;12.10
68012;BMP180;54794;48.348;7.878;2022-12-29T06:50:46;98562.00;;;12.10
68012;BMP180;54794;48.348;7.878;2022-12-29T06:53:37;98569.00;;;12.10
68012;BMP180;54794;48.348;7.878;2022-12-29T06:59:39;98571.00;;;12.20
68012;BMP180;54794;48.348;7.878;2022-12-29T07:02:42;98575.00;;;12.10
68012;BMP180;54794;48.348;7.878;2022-12-29T07:05:52;98569.00;;;12.20
68012;BMP180;54794;48.348;7.878;2022-12-29T07:08:54;98552.00;;;12.20
68012;BMP180;54794;48.348;7.878;2022-12-29T07:11:34;98551.00;;;12.20
68012;BMP180;54794;48.348;7.878;2022-12-29T07:14:34;98550.00;;;12.20
68012;BMP180;54794;48.348;7.878;2022-12-29T07:17:40;98569.00;;;12.40
68012;BMP180;54794;48.348;7.878;2022-12-29T07:23:48;98562.00;;;12.40
68012;BMP180;54794;48.348;7.878;2022-12-29T07:27:05;98583.00;;;12.40
68012;BMP180;54794;48.348;7.878;2022-12-29T07:29:59;98600.00;;;12.40
68012;BMP180;54794;48.348;7.878;2022-12-29T07:32:48;98577.00;;;12.40
68012;BMP180;54794;48.348;7.878;2022-12-29T07:35:49;98584.00;;;12.50
68012;BMP180;54794;48.348;7.878;2022-12-29T07:38:54;98574.00;;;12.50
68012;BMP180;54794;48.348;7.878;2022-12-29T07:45:16;98600.00;;;12.50
68012;BMP180;54794;48.348;7.878;2022-12-29T07:48:24;98599.00;;;12.60
68012;BMP180;54794;48.348;7.878;2022-12-29T07:51:29;98589.00;;;12.60
68012;BMP180;54794;48.348;7.878;2022-12-29T07:54:26;98603.00;;;12.60
68012;BMP180;54794;48.348;7.878;2022-12-29T07:57:47;98598.00;;;12.70
68012;BMP180;54794;48.348;7.878;2022-12-29T08:00:34;98615.00;;;12.70
68012;BMP180;54794;48.348;7.878;2022-12-29T08:03:59;98608.00;;;12.70
68012;BMP180;54794;48.348;7.878;2022-12-29T08:06:54;98618.00;;;12.70
68012;BMP180;54794;48.348;7.878;2022-12-29T08:09:42;98626.00;;;12.80
68012;BMP180;54794;48.348;7.878;2022-12-29T08:12:36;98623.00;;;12.80
68012;BMP180;54794;48.348;7.878;2022-12-29T08:15:25;98622.00;;;12.80
68012;BMP180;54794;48.348;7.878;2022-12-29T08:18:25;98636.00;;;12.70
68012;BMP180;54794;48.348;7.878;2022-12-29T08:21:15;98641.00;;;12.70
68012;BMP180;54794;48.348;7.878;2022-12-29T08:24:31;98636.00;;;12.90
68012;BMP180;54794;48.348;7.878;2022-12-29T08:28:01;98657.00;;;13.00
68012;BMP180;54794;48.348;7.878;2022-12-29T08:30:46;98652.00;;;13.00
68012;BMP180;54794;48.348;7.878;2022-12-29T08:34:04;98676.00;;;13.10
68012;BMP180;54794;48.348;7.878;2022-12-29T08:36:54;98664.00;;;13.20
68012;BMP180;54794;48.348;7.878;2022-12-29T08:39:41;98661.00;;;13.20
68012;BMP180;54794;48.348;7.878;2022-12-29T08:42:46;98656.00;;;13.20
68012;BMP180;54794;48.348;7.878;2022-12-29T08:46:01;98678.00;;;13.30
68012;BMP180;54794;48.348;7.878;2022-12-29T08:49:00;98658.00;;;13.40
68012;BMP180;54794;48.348;7.878;2022-12-29T08:55:05;98661.00;;;13.40
68012;BMP180;54794;48.348;7.878;2022-12-29T08:58:11;98681.00;;;13.40
68012;BMP180;54794;48.348;7.878;2022-12-29T09:01:15;98686.00;;;13.40
68012;BMP180;54794;48.348;7.878;2022-12-29T09:07:26;98699.00;;;13.40
68012;BMP180;54794;48.348;7.878;2022-12-29T09:10:09;98695.00;;;13.50
68012;BMP180;54794;48.348;7.878;2022-12-29T09:13:09;98697.00;;;13.40
68012;BMP180;54794;48.348;7.878;2022-12-29T09:19:10;98697.00;;;13.60
68012;BMP180;54794;48.348;7.878;2022-12-29T09:22:04;98702.00;;;13.60
68012;BMP180;54794;48.348;7.878;2022-12-29T09:24:55;98692.00;;;13.60
68012;BMP180;54794;48.348;7.878;2022-12-29T09:27:53;98701.00;;;13.50
68012;BMP180;54794;48.348;7.878;2022-12-29T09:31:05;98694.00;;;13.70
68012;BMP180;54794;48.348;7.878;2022-12-29T09:34:26;98692.00;;;13.70
68012;BMP180;54794;48.348;7.878;2022-12-29T09:37:30;98713.00;;;13.70
68012;BMP180;54794;48.348;7.878;2022-12-29T09:40:52;98716.00;;;13.80
68012;BMP180;54794;48.348;7.878;2022-12-29T09:47:07;98694.00;;;13.90
68012;BMP180;54794;48.348;7.878;2022-12-29T09:51:03;98699.00;;;13.90
68012;BMP180;54794;48.348;7.878;2022-12-29T09:54:19;98699.00;;;13.90
68012;BMP180;54794;48.348;7.878;2022-12-29T10:02:26;98698.00;;;13.90
68012;BMP180;54794;48.348;7.878;2022-12-29T10:09:47;98696.00;;;13.80
68012;BMP180;54794;48.348;7.878;2022-12-29T10:16:40;98699.00;;;13.90
68012;BMP180;54794;48.348;7.878;2022-12-29T10:23:36;98704.00;;;14.00
68012;BMP180;54794;48.348;7.878;2022-12-29T10:26:40;98703.00;;;13.90
68012;BMP180;54794;48.348;7.878;2022-12-29T10:29:44;98722.00;;;13.90
68012;BMP180;54794;48.348;7.878;2022-12-29T10:33:23;98695.00;;;13.80
68012;BMP180;54794;48.348;7.878;2022-12-29T10:44:58;98706.00;;;13.90
68012;BMP180;54794;48.348;7.878;2022-12-29T10:47:14;98695.00;;;13.70
68012;BMP180;54794;48.348;7.878;2022-12-29T10:50:04;98689.00;;;13.70
68012;BMP180;54794;48.348;7.878;2022-12-29T10:53:08;98700.00;;;13.80
68012;BMP180;54794;48.348;7.878;2022-12-29T11:00:07;98697.00;;;13.70
68012;BMP180;54794;48.348;7.878;2022-12-29T11:06:36;98688.00;;;13.60
68012;BMP180;54794;48.348;7.878;2022-12-29T11:13:24;98695.00;;;13.70
68012;BMP180;54794;48.348;7.878;2022-12-29T11:20:40;98698.00;;;13.60
68012;BMP180;54794;48.348;7.878;2022-12-29T11:23:33;98694.00;;;13.60
68012;BMP180;54794;48.348;7.878;2022-12-29T11:26:26;98696.00;;;13.60
68012;BMP180;54794;48.348;7.878;2022-12-29T11:29:38;98690.00;;;13.70
68012;BMP180;54794;48.348;7.878;2022-12-29T11:33:05;98697.00;;;13.70
68012;BMP180;54794;48.348;7.878;2022-12-29T11:36:32;98701.00;;;13.70
68012;BMP180;54794;48.348;7.878;2022-12-29T11:46:24;98697.00;;;13.60
68012;BMP180;54794;48.348;7.878;2022-12-29T11:48:52;98701.00;;;13.70
68012;BMP180;54794;48.348;7.878;2022-12-29T11:51:28;98702.00;;;13.80
68012;BMP180;54794;48.348;7.878;2022-12-29T11:54:01;98680.00;;;14.00
68012;BMP180;54794;48.348;7.878;2022-12-29T11:56:42;98689.00;;;13.90
68012;BMP180;54794;48.348;7.878;2022-12-29T12:02:00;98677.00;;;13.90
68012;BMP180;54794;48.348;7.878;2022-12-29T12:04:36;98668.00;;;14.00
68012;BMP180;54794;48.348;7.878;2022-12-29T12:07:52;98676.00;;;14.00
68012;BMP180;54794;48.348;7.878;2022-12-29T12:11:30;98657.00;;;14.00
68012;BMP180;54794;48.348;7.878;2022-12-29T12:15:02;98653.00;;;13.90
68012;BMP180;54794;48.348;7.878;2022-12-29T12:21:43;98652.00;;;14.00
68012;BMP180;54794;48.348;7.878;2022-12-29T12:24:39;98649.00;;;14.00
68012;BMP180;54794;48.348;7.878;2022-12-29T12:27:22;98645.00;;;13.90
68012;BMP180;54794;48.348;7.878;2022-12-29T12:30:15;98643.00;;;13.90
68012;BMP180;54794;48.348;7.878;2022-12-29T12:33:28;98637.00;;;13.80
68012;BMP180;54794;48.348;7.878;2022-12-29T13:18:12;98616.00;;;14.00
68012;BMP180;54794;48.348;7.878;2022-12-29T13:36:37;98575.00;;;14.10
68012;BMP180;54794;48.348;7.878;2022-12-29T13:40:50;98602.00;;;14.10
68012;BMP180;54794;48.348;7.878;2022-12-29T13:43:04;98595.00;;;14.20
68012;BMP180;54794;48.348;7.878;2022-12-29T13:46:27;98594.00;;;14.40
68012;BMP180;54794;48.348;7.878;2022-12-29T13:49:40;98601.00;;;14.30
68012;BMP180;54794;48.348;7.878;2022-12-29T13:56:41;98594.00;;;14.40
68012;BMP180;54794;48.348;7.878;2022-12-29T14:00:02;98603.00;;;14.30
68012;BMP180;54794;48.348;7.878;2022-12-29T14:07:47;98594.00;;;14.10
68012;BMP180;54794;48.348;7.878;2022-12-29T14:10:56;98583.00;;;14.00
68012;BMP180;54794;48.348;7.878;2022-12-29T14:17:34;98609.00;;;13.90
68012;BMP180;54794;48.348;7.878;2022-12-29T14:20:37;98602.00;;;13.90
68012;BMP180;54794;48.348;7.878;2022-12-29T14:23:53;98613.00;;;13.80
68012;BMP180;54794;48.348;7.878;2022-12-29T14:26:54;98610.00;;;13.80
68012;BMP180;54794;48.348;7.878;2022-12-29T14:37:31;98613.00;;;13.80
68012;BMP180;54794;48.348;7.878;2022-12-29T14:40:24;98620.00;;;13.70
68012;BMP180;54794;48.348;7.878;2022-12-29T14:42:55;98615.00;;;13.80
68012;BMP180;54794;48.348;7.878;2022-12-29T14:45:59;98635.00;;;13.70
68012;BMP180;54794;48.348;7.878;2022-12-29T14:49:19;98634.00;;;13.70
68012;BMP180;54794;48.348;7.878;2022-12-29T14:56:27;98663.00;;;13.60
68012;BMP180;54794;48.348;7.878;2022-12-29T14:59:41;98656.00;;;13.60
68012;BMP180;54794;48.348;7.878;2022-12-29T15:02:44;98677.00;;;13.60
68012;BMP180;54794;48.348;7.878;2022-12-29T15:10:22;98680.00;;;13.30
68012;BMP180;54794;48.348;7.878;2022-12-29T15:13:52;98683.00;;;13.10
68012;BMP180;54794;48.348;7.878;2022-12-29T15:16:36;98692.00;;;12.80
68012;BMP180;54794;48.348;7.878;2022-12-29T15:19:04;98693.00;;;12.80
68012;BMP180;54794;48.348;7.878;2022-12-29T15:22:12;98703.00;;;12.30
68012;BMP180;54794;48.348;7.878;2022-12-29T15:25:12;98698.00;;;12.60
68012;BMP180;54794;48.348;7.878;2022-12-29T15:28:07;98688.00;;;12.40
68012;BMP180;54794;48.348;7.878;2022-12-29T15:31:26;98703.00;;;12.30
68012;BMP180;54794;48.348;7.878;2022-12-29T15:34:41;98692.00;;;12.10
68012;BMP180;54794;48.348;7.878;2022-12-29T15:38:01;98697.00;;;12.80
68012;BMP180;54794;48.348;7.878;2022-12-29T15:45:00;98703.00;;;12.80
68012;BMP180;54794;48.348;7.878;2022-12-29T15:48:18;98700.00;;;12.80
68012;BMP180;54794;48.348;7.878;2022-12-29T15:51:51;98729.00;;;12.10
68012;BMP180;54794;48.348;7.878;2022-12-29T15:54:55;98723.00;;;12.50
68012;BMP180;54794;48.348;7.878;2022-12-29T15:58:04;98712.00;;;12.50
68012;BMP180;54794;48.348;7.878;2022-12-29T16:12:25;98728.00;;;12.90
68012;BMP180;54794;48.348;7.878;2022-12-29T16:15:55;98722.00;;;13.00
68012;BMP180;54794;48.348;7.878;2022-12-29T16:22:39;98709.00;;;12.90
68012;BMP180;54794;48.348;7.878;2022-12-29T16:25:48;98706.00;;;13.00
68012;BMP180;54794;48.348;7.878;2022-12-29T16:30:02;98705.00;;;12.90
68012;BMP180;54794;48.348;7.878;2022-12-29T16:37:42;98716.00;;;12.70
68012;BMP180;54794;48.348;7.878;2022-12-29T16:40:30;98722.00;;;12.40
68012;BMP180;54794;48.348;7.878;2022-12-29T16:47:42;98735.00;;;12.20
68012;BMP180;54794;48.348;7.878;2022-12-29T16:51:17;98736.00;;;12.40
68012;BMP180;54794;48.348;7.878;2022-12-29T16:54:33;98741.00;;;12.10
68012;BMP180;54794;48.348;7.878;2022-12-29T16:58:11;98741.00;;;12.20
68012;BMP180;54794;48.348;7.878;2022-12-29T17:04:53;98732.00;;;12.30
68012;BMP180;54794;48.348;7.878;2022-12-29T17:08:00;98722.00;;;12.00
68012;BMP180;54794;48.348;7.878;2022-12-29T17:10:59;98724.00;;;11.90
68012;BMP180;54794;48.348;7.878;2022-12-29T17:18:06;98713.00;;;11.70
68012;BMP180;54794;48.348;7.878;2022-12-29T17:22:02;98717.00;;;12.10
68012;BMP180;54794;48.348;7.878;2022-12-29T17:25:49;98721.00;;;12.00
68012;BMP180;54794;48.348;7.878;2022-12-29T17:28:51;98716.00;;;12.10
68012;BMP180;54794;48.348;7.878;2022-12-29T17:32:02;98708.00;;;12.00
68012;BMP180;54794;48.348;7.878;2022-12-29T17:35:41;98713.00;;;12.20
68012;BMP180;54794;48.348;7.878;2022-12-29T17:42:29;98719.00;;;12.30
68012;BMP180;54794;48.348;7.878;2022-12-29T17:45:38;98719.00;;;12.10
68012;BMP180;54794;48.348;7.878;2022-12-29T17:51:53;98722.00;;;11.90
68012;BMP180;54794;48.348;7.878;2022-12-29T17:58:40;98740.00;;;11.90
68012;BMP180;54794;48.348;7.878;2022-12-29T18:01:34;98733.00;;;12.00
68012;BMP180;54794;48.348;7.878;2022-12-29T18:04:39;98744.00;;;11.70
68012;BMP180;54794;48.348;7.878;2022-12-29T18:15:33;98756.00;;;11.40
68012;BMP180;54794;48.348;7.878;2022-12-29T18:18:50;98751.00;;;11.30
68012;BMP180;54794;48.348;7.878;2022-12-29T18:22:29;98744.00;;;11.10
68012;BMP180;54794;48.348;7.878;2022-12-29T18:26:21;98750.00;;;11.20
68012;BMP180;54794;48.348;7.878;2022-12-29T18:29:46;98761.00;;;11.30
68012;BMP180;54794;48.348;7.878;2022-12-29T18:37:30;98759.00;;;11.40
68012;BMP180;54794;48.348;7.878;2022-12-29T18:40:15;98752.00;;;11.30
68012;BMP180;54794;48.348;7.878;2022-12-29T18:43:52;98764.00;;;11.40
68012;BMP180;54794;48.348;7.878;2022-12-29T18:47:12;98783.00;;;11.20
68012;BMP180;54794;48.348;7.878;2022-12-29T18:50:40;98818.00;;;11.00
68012;BMP180;54794;48.348;7.878;2022-12-29T18:53:43;98804.00;;;11.40
68012;BMP180;54794;48.348;7.878;2022-12-29T18:56:57;98806.00;;;11.00
68012;BMP180;54794;48.348;7.878;2022-12-29T18:59:51;98820.00;;;10.80
68012;BMP180;54794;48.348;7.878;2022-12-29T19:03:30;98815.00;;;11.40
68012;BMP180;54794;48.348;7.878;2022-12-29T19:06:34;98822.00;;;11.10
68012;BMP180;54794;48.348;7.878;2022-12-29T19:09:36;98824.00;;;11.30
68012;BMP180;54794;48.348;7.878;2022-12-29T19:12:35;98813.00;;;11.50
68012;BMP180;54794;48.348;7.878;2022-12-29T19:15:59;98819.00;;;11.50
68012;BMP180;54794;48.348;7.878;2022-12-29T19:18:53;98826.00;;;11.40
68012;BMP180;54794;48.348;7.878;2022-12-29T19:21:50;98826.00;;;11.30
68012;BMP180;54794;48.348;7.878;2022-12-29T19:24:25;98815.00;;;11.60
68012;BMP180;54794;48.348;7.878;2022-12-29T19:27:57;98820.00;;;11.60
68012;BMP180;54794;48.348;7.878;2022-12-29T19:31:17;98816.00;;;11.40
68012;BMP180;54794;48.348;7.878;2022-12-29T19:38:20;98812.00;;;11.30
68012;BMP180;54794;48.348;7.878;2022-12-29T19:44:42;98820.00;;;11.10
68012;BMP180;54794;48.348;7.878;2022-12-29T19:48:23;98830.00;;;11.40
68012;BMP180;54794;48.348;7.878;2022-12-29T19:51:58;98845.00;;;11.40
68012;BMP180;54794;48.348;7.878;2022-12-29T19:58:50;98852.00;;;11.40
68012;BMP180;54794;48.348;7.878;2022-12-29T20:01:47;98854.00;;;11.20
68012;BMP180;54794;48.348;7.878;2022-12-29T20:08:47;98863.00;;;11.20
68012;BMP180;54794;48.348;7.878;2022-12-29T20:11:49;98867.00;;;11.50
68012;BMP180;54794;48.348;7.878;2022-12-29T20:15:03;98882.00;;;11.40
68012;BMP180;54794;48.348;7.878;2022-12-29T20:18:55;98898.00;;;11.40
68012;BMP180;54794;48.348;7.878;2022-12-29T20:22:42;98899.00;;;11.30
68012;BMP180;54794;48.348;7.878;2022-12-29T20:26:27;98906.00;;;11.40
68012;BMP180;54794;48.348;7.878;2022-12-29T20:33:56;98914.00;;;11.30
68012;BMP180;54794;48.348;7.878;2022-12-29T20:40:46;98903.00;;;11.30
68012;BMP180;54794;48.348;7.878;2022-12-29T20:55:02;98870.00;;;11.00
68012;BMP180;54794;48.348;7.878;2022-12-29T20:58:47;98897.00;;;10.90
68012;BMP180;54794;48.348;7.878;2022-12-29T21:02:48;98884.00;;;10.90
68012;BMP180;54794;48.348;7.878;2022-12-29T21:05:38;98873.00;;;10.90
68012;BMP180;54794;48.348;7.878;2022-12-29T21:08:59;98883.00;;;11.00
68012;BMP180;54794;48.348;7.878;2022-12-29T21:12:08;98900.00;;;11.00
68012;BMP180;54794;48.348;7.878;2022-12-29T21:15:04;98895.00;;;11.20
68012;BMP180;54794;48.348;7.878;2022-12-29T21:21:24;98911.00;;;11.00
68012;BMP180;54794;48.348;7.878;2022-12-29T21:23:52;98910.00;;;11.10
68012;BMP180;54794;48.348;7.878;2022-12-29T21:27:22;98898.00;;;11.10
68012;BMP180;54794;48.348;7.878;2022-12-29T21:30:34;98901.00;;;11.10
68012;BMP180;54794;48.348;7.878;2022-12-29T21:33:34;98894.00;;;11.10
68012;BMP180;54794;48.348;7.878;2022-12-29T21:37:19;98888.00;;;11.10
68012;BMP180;54794;48.348;7.878;2022-12-29T21:40:22;98888.00;;;11.00
68012;BMP180;54794;48.348;7.878;2022-12-29T21:43:15;98889.00;;;11.00
68012;BMP180;54794;48.348;7.878;2022-12-29T21:46:14;98900.00;;;10.90
68012;BMP180;54794;48.348;7.878;2022-12-29T21:52:41;98875.00;;;10.90
68012;BMP180;54794;48.348;7.878;2022-12-29T21:56:03;98869.00;;;10.70
68012;BMP180;54794;48.348;7.878;2022-12-29T21:59:18;98894.00;;;10.60
68012;BMP180;54794;48.348;7.878;2022-12-29T22:02:38;98918.00;;;10.70
68012;BMP180;54794;48.348;7.878;2022-12-29T22:09:28;98948.00;;;10.30
68012;BMP180;54794;48.348;7.878;2022-12-29T22:12:44;98950.00;;;10.50
68012;BMP180;54794;48.348;7.878;2022-12-29T22:16:01;98946.00;;;10.30
68012;BMP180;54794;48.348;7.878;2022-12-29T22:19:12;98962.00;;;10.40
68012;BMP180;54794;48.348;7.878;2022-12-29T22:22:29;98960.00;;;10.60
68012;BMP180;54794;48.348;7.878;2022-12-29T22:25:18;98957.00;;;10.60
68012;BMP180;54794;48.348;7.878;2022-12-29T22:31:57;98963.00;;;10.90
68012;BMP180;54794;48.348;7.878;2022-12-29T22:35:05;98970.00;;;10.80
68012;BMP180;54794;48.348;7.878;2022-12-29T22:38:04;98984.00;;;10.60
68012;BMP180;54794;48.348;7.878;2022-12-29T22:45:44;98997.00;;;10.70
68012;BMP180;54794;48.348;7.878;2022-12-29T22:48:59;99007.00;;;10.80
68012;BMP180;54794;48.348;7.878;2022-12-29T22:55:47;99001.00;;;10.90
68012;BMP180;54794;48.348;7.878;2022-12-29T22:58:55;99005.00;;;10.60
68012;BMP180;54794;48.348;7.878;2022-12-29T23:02:03;99000.00;;;10.80
68012;BMP180;54794;48.348;7.878;2022-12-29T23:05:13;99000.00;;;10.80
68012;BMP180;54794;48.348;7.878;2022-12-29T23:08:10;99018.00;;;10.50
68012;BMP180;54794;48.348;7.878;2022-12-29T23:11:40;99020.00;;;10.50
68012;BMP180;54794;48.348;7.878;2022-12-29T23:15:08;99010.00;;;10.80
68012;BMP180;54794;48.348;7.878;2022-12-29T23:18:31;99022.00;;;10.60
68012;BMP180;54794;48.348;7.878;2022-12-29T23:21:38;99013.00;;;10.80
68012;BMP180;54794;48.348;7.878;2022-12-29T23:24:19;99022.00;;;10.80
68012;BMP180;54794;48.348;7.878;2022-12-29T23:27:12;99028.00;;;10.80
68012;BMP180;54794;48.348;7.878;2022-12-29T23:33:46;99040.00;;;10.10
68012;BMP180;54794;48.348;7.878;2022-12-29T23:37:05;99048.00;;;10.30
68012;BMP180;54794;48.348;7.878;2022-12-29T23:40:14;99033.00;;;10.60
68012;BMP180;54794;48.348;7.878;2022-12-29T23:43:25;99040.00;;;10.20
68012;BMP180;54794;48.348;7.878;2022-12-29T23:50:21;99048.00;;;10.50
68012;BMP180;54794;48.348;7.878;2022-12-29T23:57:40;99051.00;;;10.40
